sensor_id;sensor_type;location;lat;lon;timestamp;temperature;humidity
60455;DHT22;54989;53.398;6.564;2022-12-18T00:03:43;19.80;46.10
60455;DHT22;54989;53.398;6.564;2022-12-18T00:06:13;19.70;46.10
60455;DHT22;54989;53.398;6.564;2022-12-18T00:08:42;19.70;46.10
60455;DHT22;54989;53.398;6.564;2022-12-18T00:11:19;19.70;46.10
60455;DHT22;54989;53.398;6.564;2022-12-18T00:13:47;19.70;46.10
60455;DHT22;54989;53.398;6.564;2022-12-18T00:16:16;19.70;46.10
60455;DHT22;54989;53.398;6.564;2022-12-18T00:18:47;19.70;46.10
60455;DHT22;54989;53.398;6.564;2022-12-18T00:21:15;19.70;46.10
60455;DHT22;54989;53.398;6.564;2022-12-18T00:23:43;19.60;46.00
60455;DHT22;54989;53.398;6.564;2022-12-18T00:26:12;19.60;46.10
60455;DHT22;54989;53.398;6.564;2022-12-18T00:28:39;19.60;46.10
60455;DHT22;54989;53.398;6.564;2022-12-18T00:31:08;19.50;46.10
60455;DHT22;54989;53.398;6.564;2022-12-18T00:33:36;19.50;46.10
60455;DHT22;54989;53.398;6.564;2022-12-18T00:36:05;19.50;46.10
60455;DHT22;54989;53.398;6.564;2022-12-18T00:38:33;19.50;46.10
60455;DHT22;54989;53.398;6.564;2022-12-18T00:41:01;19.50;46.10
60455;DHT22;54989;53.398;6.564;2022-12-18T00:43:28;19.50;46.20
60455;DHT22;54989;53.398;6.564;2022-12-18T00:45:56;19.50;46.20
60455;DHT22;54989;53.398;6.564;2022-12-18T00:48:25;19.50;46.20
60455;DHT22;54989;53.398;6.564;2022-12-18T00:50:52;19.40;46.10
60455;DHT22;54989;53.398;6.564;2022-12-18T00:53:20;19.40;46.20
60455;DHT22;54989;53.398;6.564;2022-12-18T00:55:47;19.40;46.10
60455;DHT22;54989;53.398;6.564;2022-12-18T00:58:16;19.40;46.20
60455;DHT22;54989;53.398;6.564;2022-12-18T01:00:43;19.40;46.20
60455;DHT22;54989;53.398;6.564;2022-12-18T01:03:12;19.40;46.80
60455;DHT22;54989;53.398;6.564;2022-12-18T01:05:43;19.40;46.30
60455;DHT22;54989;53.398;6.564;2022-12-18T01:08:10;19.30;46.20
60455;DHT22;54989;53.398;6.564;2022-12-18T01:10:41;19.30;46.20
60455;DHT22;54989;53.398;6.564;2022-12-18T01:13:08;19.30;46.20
60455;DHT22;54989;53.398;6.564;2022-12-18T01:15:36;19.30;46.20
60455;DHT22;54989;53.398;6.564;2022-12-18T01:18:03;19.30;46.20
60455;DHT22;54989;53.398;6.564;2022-12-18T01:20:32;19.30;46.20
60455;DHT22;54989;53.398;6.564;2022-12-18T01:22:59;19.30;46.20
60455;DHT22;54989;53.398;6.564;2022-12-18T01:25:26;19.20;46.20
60455;DHT22;54989;53.398;6.564;2022-12-18T01:27:54;19.20;46.20
60455;DHT22;54989;53.398;6.564;2022-12-18T01:30:21;19.20;46.20
60455;DHT22;54989;53.398;6.564;2022-12-18T01:32:48;19.20;46.20
60455;DHT22;54989;53.398;6.564;2022-12-18T01:35:17;19.20;46.10
60455;DHT22;54989;53.398;6.564;2022-12-18T01:37:45;19.20;46.20
60455;DHT22;54989;53.398;6.564;2022-12-18T01:40:13;19.20;46.20
60455;DHT22;54989;53.398;6.564;2022-12-18T01:42:40;19.10;46.10
60455;DHT22;54989;53.398;6.564;2022-12-18T01:47:52;19.10;46.10
60455;DHT22;54989;53.398;6.564;2022-12-18T01:52:52;19.10;46.20
60455;DHT22;54989;53.398;6.564;2022-12-18T01:55:20;19.00;46.20
60455;DHT22;54989;53.398;6.564;2022-12-18T01:57:49;19.00;46.20
60455;DHT22;54989;53.398;6.564;2022-12-18T02:00:21;19.00;46.30
60455;DHT22;54989;53.398;6.564;2022-12-18T02:02:50;19.00;46.30
60455;DHT22;54989;53.398;6.564;2022-12-18T02:05:21;19.00;46.20
60455;DHT22;54989;53.398;6.564;2022-12-18T02:08:26;18.90;46.20
60455;DHT22;54989;53.398;6.564;2022-12-18T02:15:49;18.90;46.20
60455;DHT22;54989;53.398;6.564;2022-12-18T02:18:22;18.90;46.20
60455;DHT22;54989;53.398;6.564;2022-12-18T02:23:28;18.90;46.20
60455;DHT22;54989;53.398;6.564;2022-12-18T02:28:45;18.80;46.20
60455;DHT22;54989;53.398;6.564;2022-12-18T02:31:15;18.80;46.30
60455;DHT22;54989;53.398;6.564;2022-12-18T02:33:44;18.80;46.30
60455;DHT22;54989;53.398;6.564;2022-12-18T02:36:12;18.80;46.40
60455;DHT22;54989;53.398;6.564;2022-12-18T02:38:42;18.80;46.40
60455;DHT22;54989;53.398;6.564;2022-12-18T02:41:13;18.70;46.30
60455;DHT22;54989;53.398;6.564;2022-12-18T02:43:46;18.70;46.30
60455;DHT22;54989;53.398;6.564;2022-12-18T02:49:19;18.70;46.40
60455;DHT22;54989;53.398;6.564;2022-12-18T02:51:53;18.70;46.40
60455;DHT22;54989;53.398;6.564;2022-12-18T02:54:38;18.60;46.40
60455;DHT22;54989;53.398;6.564;2022-12-18T02:57:12;18.60;46.40
60455;DHT22;54989;53.398;6.564;2022-12-18T02:59:45;18.60;46.50
60455;DHT22;54989;53.398;6.564;2022-12-18T03:04:59;18.60;46.50
60455;DHT22;54989;53.398;6.564;2022-12-18T03:07:33;18.50;46.40
60455;DHT22;54989;53.398;6.564;2022-12-18T03:10:06;18.50;46.50
60455;DHT22;54989;53.398;6.564;2022-12-18T03:12:37;18.50;46.50
60455;DHT22;54989;53.398;6.564;2022-12-18T03:15:09;18.50;46.50
60455;DHT22;54989;53.398;6.564;2022-12-18T03:17:46;18.50;46.50
60455;DHT22;54989;53.398;6.564;2022-12-18T03:20:15;18.50;46.50
60455;DHT22;54989;53.398;6.564;2022-12-18T03:22:44;18.40;46.50
60455;DHT22;54989;53.398;6.564;2022-12-18T03:25:14;18.50;46.50
60455;DHT22;54989;53.398;6.564;2022-12-18T03:27:47;18.40;46.50
60455;DHT22;54989;53.398;6.564;2022-12-18T03:30:17;18.40;46.50
60455;DHT22;54989;53.398;6.564;2022-12-18T03:32:47;18.30;46.50
60455;DHT22;54989;53.398;6.564;2022-12-18T03:35:19;18.30;46.50
60455;DHT22;54989;53.398;6.564;2022-12-18T03:37:47;18.30;46.60
60455;DHT22;54989;53.398;6.564;2022-12-18T03:40:15;18.30;46.60
60455;DHT22;54989;53.398;6.564;2022-12-18T03:42:47;18.30;46.50
60455;DHT22;54989;53.398;6.564;2022-12-18T03:50:45;18.30;46.60
60455;DHT22;54989;53.398;6.564;2022-12-18T03:55:56;18.20;46.60
60455;DHT22;54989;53.398;6.564;2022-12-18T03:58:29;18.20;47.30
60455;DHT22;54989;53.398;6.564;2022-12-18T04:01:23;18.20;46.60
60455;DHT22;54989;53.398;6.564;2022-12-18T04:03:52;18.20;46.60
60455;DHT22;54989;53.398;6.564;2022-12-18T04:06:22;18.20;46.60
60455;DHT22;54989;53.398;6.564;2022-12-18T04:08:51;18.20;46.70
60455;DHT22;54989;53.398;6.564;2022-12-18T04:11:21;18.10;46.60
60455;DHT22;54989;53.398;6.564;2022-12-18T04:13:49;18.10;46.60
60455;DHT22;54989;53.398;6.564;2022-12-18T04:16:21;18.10;46.70
60455;DHT22;54989;53.398;6.564;2022-12-18T04:18:52;18.10;46.60
60455;DHT22;54989;53.398;6.564;2022-12-18T04:21:20;18.10;46.60
60455;DHT22;54989;53.398;6.564;2022-12-18T04:23:49;18.10;46.60
60455;DHT22;54989;53.398;6.564;2022-12-18T04:26:19;18.00;46.60
60455;DHT22;54989;53.398;6.564;2022-12-18T04:29:00;18.00;46.60
60455;DHT22;54989;53.398;6.564;2022-12-18T04:31:28;18.00;46.70
60455;DHT22;54989;53.398;6.564;2022-12-18T04:33:56;18.00;46.70
60455;DHT22;54989;53.398;6.564;2022-12-18T04:36:24;18.00;46.70
60455;DHT22;54989;53.398;6.564;2022-12-18T04:38:52;17.90;46.70
60455;DHT22;54989;53.398;6.564;2022-12-18T04:41:20;17.90;46.70
60455;DHT22;54989;53.398;6.564;2022-12-18T04:43:51;17.90;46.70
60455;DHT22;54989;53.398;6.564;2022-12-18T04:46:18;17.90;46.80
60455;DHT22;54989;53.398;6.564;2022-12-18T04:48:46;17.90;46.70
60455;DHT22;54989;53.398;6.564;2022-12-18T04:51:14;17.80;46.70
60455;DHT22;54989;53.398;6.564;2022-12-18T04:53:41;17.80;46.70
60455;DHT22;54989;53.398;6.564;2022-12-18T04:56:10;17.80;46.80
60455;DHT22;54989;53.398;6.564;2022-12-18T04:58:38;17.80;46.80
60455;DHT22;54989;53.398;6.564;2022-12-18T05:01:06;17.80;46.80
60455;DHT22;54989;53.398;6.564;2022-12-18T05:03:34;17.70;46.70
60455;DHT22;54989;53.398;6.564;2022-12-18T05:06:03;17.70;46.80
60455;DHT22;54989;53.398;6.564;2022-12-18T05:08:31;17.70;46.80
60455;DHT22;54989;53.398;6.564;2022-12-18T05:11:05;17.60;46.70
60455;DHT22;54989;53.398;6.564;2022-12-18T05:13:33;17.70;46.80
60455;DHT22;54989;53.398;6.564;2022-12-18T05:16:00;17.70;46.80
60455;DHT22;54989;53.398;6.564;2022-12-18T05:18:28;17.60;46.70
60455;DHT22;54989;53.398;6.564;2022-12-18T05:20:56;17.60;46.70
60455;DHT22;54989;53.398;6.564;2022-12-18T05:23:23;17.60;46.80
60455;DHT22;54989;53.398;6.564;2022-12-18T05:25:54;17.60;46.80
60455;DHT22;54989;53.398;6.564;2022-12-18T05:28:22;17.60;46.80
60455;DHT22;54989;53.398;6.564;2022-12-18T05:30:54;17.50;46.80
60455;DHT22;54989;53.398;6.564;2022-12-18T05:33:22;17.50;46.80
60455;DHT22;54989;53.398;6.564;2022-12-18T05:35:50;17.50;46.80
60455;DHT22;54989;53.398;6.564;2022-12-18T05:38:20;17.50;46.80
60455;DHT22;54989;53.398;6.564;2022-12-18T05:40:48;17.50;46.90
60455;DHT22;54989;53.398;6.564;2022-12-18T05:43:15;17.40;46.80
60455;DHT22;54989;53.398;6.564;2022-12-18T05:45:47;17.40;46.80
60455;DHT22;54989;53.398;6.564;2022-12-18T05:48:15;17.40;46.80
60455;DHT22;54989;53.398;6.564;2022-12-18T05:50:43;17.40;46.90
60455;DHT22;54989;53.398;6.564;2022-12-18T05:53:13;17.40;46.90
60455;DHT22;54989;53.398;6.564;2022-12-18T05:55:41;17.40;46.90
60455;DHT22;54989;53.398;6.564;2022-12-18T05:58:09;17.40;46.90
60455;DHT22;54989;53.398;6.564;2022-12-18T06:00:38;17.30;46.80
60455;DHT22;54989;53.398;6.564;2022-12-18T06:03:09;17.30;46.90
60455;DHT22;54989;53.398;6.564;2022-12-18T06:05:38;17.30;46.90
60455;DHT22;54989;53.398;6.564;2022-12-18T06:08:06;17.30;46.90
60455;DHT22;54989;53.398;6.564;2022-12-18T06:10:34;17.30;46.90
60455;DHT22;54989;53.398;6.564;2022-12-18T06:13:01;17.30;46.90
60455;DHT22;54989;53.398;6.564;2022-12-18T06:15:28;17.30;46.90
60455;DHT22;54989;53.398;6.564;2022-12-18T06:17:56;17.30;46.80
60455;DHT22;54989;53.398;6.564;2022-12-18T06:20:23;17.30;46.80
60455;DHT22;54989;53.398;6.564;2022-12-18T06:22:57;17.30;46.70
60455;DHT22;54989;53.398;6.564;2022-12-18T06:25:26;17.30;46.70
60455;DHT22;54989;53.398;6.564;2022-12-18T06:27:53;17.30;46.70
60455;DHT22;54989;53.398;6.564;2022-12-18T06:30:20;17.30;46.70
60455;DHT22;54989;53.398;6.564;2022-12-18T06:32:48;17.30;46.70
60455;DHT22;54989;53.398;6.564;2022-12-18T06:35:23;17.20;46.60
60455;DHT22;54989;53.398;6.564;2022-12-18T06:37:50;17.30;46.60
60455;DHT22;54989;53.398;6.564;2022-12-18T06:40:18;17.30;46.60
60455;DHT22;54989;53.398;6.564;2022-12-18T06:42:46;17.30;46.60
60455;DHT22;54989;53.398;6.564;2022-12-18T06:45:13;17.20;46.60
60455;DHT22;54989;53.398;6.564;2022-12-18T06:47:42;17.20;46.50
60455;DHT22;54989;53.398;6.564;2022-12-18T06:50:09;17.20;46.40
60455;DHT22;54989;53.398;6.564;2022-12-18T06:52:37;17.20;46.40
60455;DHT22;54989;53.398;6.564;2022-12-18T06:55:04;17.20;46.50
60455;DHT22;54989;53.398;6.564;2022-12-18T06:57:31;17.20;46.50
60455;DHT22;54989;53.398;6.564;2022-12-18T07:00:00;17.20;46.40
60455;DHT22;54989;53.398;6.564;2022-12-18T07:02:27;17.20;46.50
60455;DHT22;54989;53.398;6.564;2022-12-18T07:04:55;17.10;46.40
60455;DHT22;54989;53.398;6.564;2022-12-18T07:07:22;17.20;46.40
60455;DHT22;54989;53.398;6.564;2022-12-18T07:09:50;17.10;46.40
60455;DHT22;54989;53.398;6.564;2022-12-18T07:12:17;17.10;46.50
60455;DHT22;54989;53.398;6.564;2022-12-18T07:14:45;17.10;46.50
60455;DHT22;54989;53.398;6.564;2022-12-18T07:17:12;17.10;46.50
60455;DHT22;54989;53.398;6.564;2022-12-18T07:19:41;17.10;46.50
60455;DHT22;54989;53.398;6.564;2022-12-18T07:22:08;17.10;46.50
60455;DHT22;54989;53.398;6.564;2022-12-18T07:24:36;17.10;46.50
60455;DHT22;54989;53.398;6.564;2022-12-18T07:27:03;17.10;46.50
60455;DHT22;54989;53.398;6.564;2022-12-18T07:29:33;17.10;46.50
60455;DHT22;54989;53.398;6.564;2022-12-18T07:32:00;17.10;46.50
60455;DHT22;54989;53.398;6.564;2022-12-18T07:34:28;17.00;46.40
60455;DHT22;54989;53.398;6.564;2022-12-18T07:36:55;17.00;46.60
60455;DHT22;54989;53.398;6.564;2022-12-18T07:39:23;17.00;46.50
60455;DHT22;54989;53.398;6.564;2022-12-18T07:41:50;17.00;46.50
60455;DHT22;54989;53.398;6.564;2022-12-18T07:44:39;17.00;46.50
60455;DHT22;54989;53.398;6.564;2022-12-18T07:47:06;17.00;46.50
60455;DHT22;54989;53.398;6.564;2022-12-18T07:49:38;17.00;46.50
60455;DHT22;54989;53.398;6.564;2022-12-18T07:52:05;16.90;46.40
60455;DHT22;54989;53.398;6.564;2022-12-18T07:54:33;16.90;46.40
60455;DHT22;54989;53.398;6.564;2022-12-18T07:57:00;16.90;46.50
60455;DHT22;54989;53.398;6.564;2022-12-18T07:59:27;16.90;46.40
60455;DHT22;54989;53.398;6.564;2022-12-18T08:01:55;16.90;46.40
60455;DHT22;54989;53.398;6.564;2022-12-18T08:04:22;16.90;46.40
60455;DHT22;54989;53.398;6.564;2022-12-18T08:06:50;16.90;46.40
60455;DHT22;54989;53.398;6.564;2022-12-18T08:09:17;16.90;46.40
60455;DHT22;54989;53.398;6.564;2022-12-18T08:11:45;16.90;46.40
60455;DHT22;54989;53.398;6.564;2022-12-18T08:14:12;16.90;46.40
60455;DHT22;54989;53.398;6.564;2022-12-18T08:16:41;16.80;46.40
60455;DHT22;54989;53.398;6.564;2022-12-18T08:19:09;16.80;46.40
60455;DHT22;54989;53.398;6.564;2022-12-18T08:21:36;16.80;46.80
60455;DHT22;54989;53.398;6.564;2022-12-18T08:24:04;16.80;46.80
60455;DHT22;54989;53.398;6.564;2022-12-18T08:26:31;16.90;46.60
60455;DHT22;54989;53.398;6.564;2022-12-18T08:29:00;16.90;46.40
60455;DHT22;54989;53.398;6.564;2022-12-18T08:31:27;16.90;46.30
60455;DHT22;54989;53.398;6.564;2022-12-18T08:33:56;17.00;46.50
60455;DHT22;54989;53.398;6.564;2022-12-18T08:36:24;17.00;46.40
60455;DHT22;54989;53.398;6.564;2022-12-18T08:38:53;17.10;46.30
60455;DHT22;54989;53.398;6.564;2022-12-18T08:41:20;17.20;46.20
60455;DHT22;54989;53.398;6.564;2022-12-18T08:43:47;17.20;46.00
60455;DHT22;54989;53.398;6.564;2022-12-18T08:46:40;17.30;46.00
60455;DHT22;54989;53.398;6.564;2022-12-18T08:49:09;17.50;45.90
60455;DHT22;54989;53.398;6.564;2022-12-18T08:51:37;17.60;45.60
60455;DHT22;54989;53.398;6.564;2022-12-18T08:54:04;17.60;45.60
60455;DHT22;54989;53.398;6.564;2022-12-18T08:56:32;17.80;45.60
60455;DHT22;54989;53.398;6.564;2022-12-18T08:59:01;17.80;45.60
60455;DHT22;54989;53.398;6.564;2022-12-18T09:01:28;17.80;45.20
60455;DHT22;54989;53.398;6.564;2022-12-18T09:03:56;17.90;45.20
60455;DHT22;54989;53.398;6.564;2022-12-18T09:06:23;18.00;45.20
60455;DHT22;54989;53.398;6.564;2022-12-18T09:08:51;18.10;45.30
60455;DHT22;54989;53.398;6.564;2022-12-18T09:11:20;18.20;44.90
60455;DHT22;54989;53.398;6.564;2022-12-18T09:13:47;18.30;44.80
60455;DHT22;54989;53.398;6.564;2022-12-18T09:16:15;18.40;44.70
60455;DHT22;54989;53.398;6.564;2022-12-18T09:18:43;18.50;44.50
60455;DHT22;54989;53.398;6.564;2022-12-18T09:21:14;18.70;45.30
60455;DHT22;54989;53.398;6.564;2022-12-18T09:23:42;18.80;44.60
60455;DHT22;54989;53.398;6.564;2022-12-18T09:26:10;19.00;44.80
60455;DHT22;54989;53.398;6.564;2022-12-18T09:28:37;19.10;44.50
60455;DHT22;54989;53.398;6.564;2022-12-18T09:31:06;19.30;44.50
60455;DHT22;54989;53.398;6.564;2022-12-18T09:33:35;19.40;44.20
60455;DHT22;54989;53.398;6.564;2022-12-18T09:36:03;19.60;44.00
60455;DHT22;54989;53.398;6.564;2022-12-18T09:38:31;19.70;43.80
60455;DHT22;54989;53.398;6.564;2022-12-18T09:41:00;19.80;43.80
60455;DHT22;54989;53.398;6.564;2022-12-18T09:43:33;20.00;43.60
60455;DHT22;54989;53.398;6.564;2022-12-18T09:46:17;20.10;43.40
60455;DHT22;54989;53.398;6.564;2022-12-18T09:48:48;20.20;43.20
60455;DHT22;54989;53.398;6.564;2022-12-18T09:51:21;20.30;43.20
60455;DHT22;54989;53.398;6.564;2022-12-18T09:53:51;20.40;43.20
60455;DHT22;54989;53.398;6.564;2022-12-18T09:56:19;20.50;43.00
60455;DHT22;54989;53.398;6.564;2022-12-18T09:58:53;20.60;43.10
60455;DHT22;54989;53.398;6.564;2022-12-18T10:01:22;20.70;42.90
60455;DHT22;54989;53.398;6.564;2022-12-18T10:03:50;20.80;42.70
60455;DHT22;54989;53.398;6.564;2022-12-18T10:08:49;20.90;42.60
60455;DHT22;54989;53.398;6.564;2022-12-18T10:13:47;20.90;42.60
60455;DHT22;54989;53.398;6.564;2022-12-18T10:16:17;20.90;42.50
60455;DHT22;54989;53.398;6.564;2022-12-18T10:21:35;20.90;42.70
60455;DHT22;54989;53.398;6.564;2022-12-18T10:26:40;20.90;42.70
60455;DHT22;54989;53.398;6.564;2022-12-18T10:29:10;20.90;42.60
60455;DHT22;54989;53.398;6.564;2022-12-18T10:31:39;20.90;42.70
60455;DHT22;54989;53.398;6.564;2022-12-18T10:34:09;20.90;42.80
60455;DHT22;54989;53.398;6.564;2022-12-18T10:36:37;20.90;42.80
60455;DHT22;54989;53.398;6.564;2022-12-18T10:39:19;20.90;42.80
60455;DHT22;54989;53.398;6.564;2022-12-18T10:41:47;21.00;42.70
60455;DHT22;54989;53.398;6.564;2022-12-18T10:44:21;21.00;42.60
60455;DHT22;54989;53.398;6.564;2022-12-18T10:46:49;21.00;42.50
60455;DHT22;54989;53.398;6.564;2022-12-18T10:49:26;21.00;42.70
60455;DHT22;54989;53.398;6.564;2022-12-18T10:52:07;21.00;42.70
60455;DHT22;54989;53.398;6.564;2022-12-18T10:54:38;21.00;42.70
60455;DHT22;54989;53.398;6.564;2022-12-18T10:57:29;21.00;42.80
60455;DHT22;54989;53.398;6.564;2022-12-18T10:59:59;21.00;42.60
60455;DHT22;54989;53.398;6.564;2022-12-18T11:04:54;21.00;42.80
60455;DHT22;54989;53.398;6.564;2022-12-18T11:07:21;21.10;42.80
60455;DHT22;54989;53.398;6.564;2022-12-18T11:09:59;21.10;42.80
60455;DHT22;54989;53.398;6.564;2022-12-18T11:12:27;21.20;42.90
60455;DHT22;54989;53.398;6.564;2022-12-18T11:14:57;21.20;42.90
60455;DHT22;54989;53.398;6.564;2022-12-18T11:17:30;21.20;42.90
60455;DHT22;54989;53.398;6.564;2022-12-18T11:19:59;21.30;42.70
60455;DHT22;54989;53.398;6.564;2022-12-18T11:22:29;21.40;42.60
60455;DHT22;54989;53.398;6.564;2022-12-18T11:27:51;21.50;42.50
60455;DHT22;54989;53.398;6.564;2022-12-18T11:30:21;21.50;42.40
60455;DHT22;54989;53.398;6.564;2022-12-18T11:32:50;21.60;42.50
60455;DHT22;54989;53.398;6.564;2022-12-18T11:36:06;21.60;42.50
60455;DHT22;54989;53.398;6.564;2022-12-18T11:38:14;21.60;42.50
60455;DHT22;54989;53.398;6.564;2022-12-18T11:40:45;21.60;42.60
60455;DHT22;54989;53.398;6.564;2022-12-18T11:43:27;21.60;42.60
60455;DHT22;54989;53.398;6.564;2022-12-18T11:45:59;21.60;42.70
60455;DHT22;54989;53.398;6.564;2022-12-18T11:48:36;21.60;42.80
60455;DHT22;54989;53.398;6.564;2022-12-18T11:51:08;21.50;42.80
60455;DHT22;54989;53.398;6.564;2022-12-18T11:53:38;21.50;42.80
60455;DHT22;54989;53.398;6.564;2022-12-18T12:01:18;21.40;42.90
60455;DHT22;54989;53.398;6.564;2022-12-18T12:03:56;21.30;42.60
60455;DHT22;54989;53.398;6.564;2022-12-18T12:11:38;21.20;43.10
60455;DHT22;54989;53.398;6.564;2022-12-18T12:27:09;21.10;43.40
60455;DHT22;54989;53.398;6.564;2022-12-18T12:30:03;21.00;43.40
60455;DHT22;54989;53.398;6.564;2022-12-18T12:32:41;21.00;43.60
60455;DHT22;54989;53.398;6.564;2022-12-18T12:37:48;20.90;43.50
60455;DHT22;54989;53.398;6.564;2022-12-18T12:40:18;20.90;43.70
60455;DHT22;54989;53.398;6.564;2022-12-18T12:45:47;20.90;43.70
60455;DHT22;54989;53.398;6.564;2022-12-18T12:48:19;20.80;43.70
60455;DHT22;54989;53.398;6.564;2022-12-18T12:50:47;20.90;43.80
60455;DHT22;54989;53.398;6.564;2022-12-18T12:53:37;20.80;43.70
60455;DHT22;54989;53.398;6.564;2022-12-18T12:56:04;20.80;43.80
60455;DHT22;54989;53.398;6.564;2022-12-18T12:58:46;20.80;43.80
60455;DHT22;54989;53.398;6.564;2022-12-18T13:03:53;20.80;43.90
60455;DHT22;54989;53.398;6.564;2022-12-18T13:14:24;20.60;43.70
60455;DHT22;54989;53.398;6.564;2022-12-18T13:19:40;20.60;43.70
60455;DHT22;54989;53.398;6.564;2022-12-18T13:22:20;20.60;43.80
60455;DHT22;54989;53.398;6.564;2022-12-18T13:24:48;20.60;43.80
60455;DHT22;54989;53.398;6.564;2022-12-18T13:30:02;20.60;43.80
60455;DHT22;54989;53.398;6.564;2022-12-18T13:32:29;20.60;43.80
60455;DHT22;54989;53.398;6.564;2022-12-18T13:37:51;20.50;43.80
60455;DHT22;54989;53.398;6.564;2022-12-18T13:48:21;20.50;43.90
60455;DHT22;54989;53.398;6.564;2022-12-18T13:50:53;20.50;43.90
60455;DHT22;54989;53.398;6.564;2022-12-18T13:53:21;20.40;43.80
60455;DHT22;54989;53.398;6.564;2022-12-18T13:55:51;20.40;43.80
60455;DHT22;54989;53.398;6.564;2022-12-18T13:58:19;20.40;43.90
60455;DHT22;54989;53.398;6.564;2022-12-18T14:00:47;20.30;44.00
60455;DHT22;54989;53.398;6.564;2022-12-18T14:03:23;20.30;44.00
60455;DHT22;54989;53.398;6.564;2022-12-18T14:05:58;20.30;44.10
60455;DHT22;54989;53.398;6.564;2022-12-18T14:08:27;20.30;44.20
60455;DHT22;54989;53.398;6.564;2022-12-18T14:10:57;20.30;44.20
60455;DHT22;54989;53.398;6.564;2022-12-18T14:13:32;20.20;44.10
60455;DHT22;54989;53.398;6.564;2022-12-18T14:16:01;20.20;44.10
60455;DHT22;54989;53.398;6.564;2022-12-18T14:18:36;20.20;44.10
60455;DHT22;54989;53.398;6.564;2022-12-18T14:21:06;20.30;44.20
60455;DHT22;54989;53.398;6.564;2022-12-18T14:28:47;20.50;44.40
60455;DHT22;54989;53.398;6.564;2022-12-18T14:31:21;20.40;44.20
60455;DHT22;54989;53.398;6.564;2022-12-18T14:33:48;20.40;44.30
60455;DHT22;54989;53.398;6.564;2022-12-18T14:36:17;20.40;44.30
60455;DHT22;54989;53.398;6.564;2022-12-18T14:38:47;20.30;44.30
60455;DHT22;54989;53.398;6.564;2022-12-18T14:41:15;20.30;44.40
60455;DHT22;54989;53.398;6.564;2022-12-18T14:43:44;20.20;44.20
60455;DHT22;54989;53.398;6.564;2022-12-18T14:48:51;20.20;44.20
60455;DHT22;54989;53.398;6.564;2022-12-18T14:51:21;20.20;44.30
60455;DHT22;54989;53.398;6.564;2022-12-18T14:53:56;20.20;44.40
60455;DHT22;54989;53.398;6.564;2022-12-18T14:58:58;20.20;44.50
60455;DHT22;54989;53.398;6.564;2022-12-18T15:01:28;20.20;44.50
60455;DHT22;54989;53.398;6.564;2022-12-18T15:03:57;20.20;44.40
60455;DHT22;54989;53.398;6.564;2022-12-18T15:06:26;20.20;44.10
60455;DHT22;54989;53.398;6.564;2022-12-18T15:08:54;20.20;44.10
60455;DHT22;54989;53.398;6.564;2022-12-18T15:11:35;20.20;44.10
60455;DHT22;54989;53.398;6.564;2022-12-18T15:14:21;20.20;44.20
60455;DHT22;54989;53.398;6.564;2022-12-18T15:16:55;20.20;44.10
60455;DHT22;54989;53.398;6.564;2022-12-18T15:22:00;20.30;44.30
60455;DHT22;54989;53.398;6.564;2022-12-18T15:24:32;20.30;44.20
60455;DHT22;54989;53.398;6.564;2022-12-18T15:27:00;20.30;44.40
60455;DHT22;54989;53.398;6.564;2022-12-18T15:29:28;20.30;44.20
60455;DHT22;54989;53.398;6.564;2022-12-18T15:32:00;20.40;44.20
60455;DHT22;54989;53.398;6.564;2022-12-18T15:34:29;20.40;44.20
60455;DHT22;54989;53.398;6.564;2022-12-18T15:36:57;20.50;44.00
60455;DHT22;54989;53.398;6.564;2022-12-18T15:39:24;20.50;44.10
60455;DHT22;54989;53.398;6.564;2022-12-18T15:41:52;20.50;44.00
60455;DHT22;54989;53.398;6.564;2022-12-18T15:44:37;20.50;44.00
60455;DHT22;54989;53.398;6.564;2022-12-18T15:47:10;20.50;43.90
60455;DHT22;54989;53.398;6.564;2022-12-18T15:49:40;20.50;43.90
60455;DHT22;54989;53.398;6.564;2022-12-18T15:52:08;20.50;43.80
60455;DHT22;54989;53.398;6.564;2022-12-18T15:54:37;20.60;43.80
60455;DHT22;54989;53.398;6.564;2022-12-18T15:57:26;20.50;43.80
60455;DHT22;54989;53.398;6.564;2022-12-18T15:59:55;20.50;43.80
60455;DHT22;54989;53.398;6.564;2022-12-18T16:02:25;20.60;43.70
60455;DHT22;54989;53.398;6.564;2022-12-18T16:04:55;20.60;43.70
60455;DHT22;54989;53.398;6.564;2022-12-18T16:07:25;20.50;43.70
60455;DHT22;54989;53.398;6.564;2022-12-18T16:09:59;20.50;43.60
60455;DHT22;54989;53.398;6.564;2022-12-18T16:12:28;20.50;43.60
60455;DHT22;54989;53.398;6.564;2022-12-18T16:14:55;20.60;43.60
60455;DHT22;54989;53.398;6.564;2022-12-18T16:17:23;20.60;43.60
60455;DHT22;54989;53.398;6.564;2022-12-18T16:19:52;20.60;43.50
60455;DHT22;54989;53.398;6.564;2022-12-18T16:22:24;20.60;43.60
60455;DHT22;54989;53.398;6.564;2022-12-18T16:24:55;20.60;43.40
60455;DHT22;54989;53.398;6.564;2022-12-18T16:27:23;20.50;43.50
60455;DHT22;54989;53.398;6.564;2022-12-18T16:29:51;20.60;43.60
60455;DHT22;54989;53.398;6.564;2022-12-18T16:32:19;20.60;43.50
60455;DHT22;54989;53.398;6.564;2022-12-18T16:34:47;20.60;43.50
60455;DHT22;54989;53.398;6.564;2022-12-18T16:37:16;20.60;43.50
60455;DHT22;54989;53.398;6.564;2022-12-18T16:39:44;20.60;43.50
60455;DHT22;54989;53.398;6.564;2022-12-18T16:42:15;20.60;43.60
60455;DHT22;54989;53.398;6.564;2022-12-18T16:44:46;20.60;43.50
60455;DHT22;54989;53.398;6.564;2022-12-18T16:47:14;20.60;43.50
60455;DHT22;54989;53.398;6.564;2022-12-18T16:49:42;20.60;43.60
60455;DHT22;54989;53.398;6.564;2022-12-18T16:52:12;20.50;43.60
60455;DHT22;54989;53.398;6.564;2022-12-18T16:54:39;20.50;43.60
60455;DHT22;54989;53.398;6.564;2022-12-18T16:57:08;20.50;43.60
60455;DHT22;54989;53.398;6.564;2022-12-18T16:59:37;20.50;43.60
60455;DHT22;54989;53.398;6.564;2022-12-18T17:02:04;20.50;43.60
60455;DHT22;54989;53.398;6.564;2022-12-18T17:04:33;20.50;43.60
60455;DHT22;54989;53.398;6.564;2022-12-18T17:07:01;20.60;43.60
60455;DHT22;54989;53.398;6.564;2022-12-18T17:09:28;20.50;43.60
60455;DHT22;54989;53.398;6.564;2022-12-18T17:11:55;20.50;43.60
60455;DHT22;54989;53.398;6.564;2022-12-18T17:14:23;20.50;43.60
60455;DHT22;54989;53.398;6.564;2022-12-18T17:16:51;20.60;43.60
60455;DHT22;54989;53.398;6.564;2022-12-18T17:19:38;20.50;43.70
60455;DHT22;54989;53.398;6.564;2022-12-18T17:22:06;20.50;43.80
60455;DHT22;54989;53.398;6.564;2022-12-18T17:24:34;20.50;43.90
60455;DHT22;54989;53.398;6.564;2022-12-18T17:27:02;20.50;43.90
60455;DHT22;54989;53.398;6.564;2022-12-18T17:29:29;20.40;43.90
60455;DHT22;54989;53.398;6.564;2022-12-18T17:31:57;20.40;43.90
60455;DHT22;54989;53.398;6.564;2022-12-18T17:34:26;20.40;44.00
60455;DHT22;54989;53.398;6.564;2022-12-18T17:36:54;20.40;44.00
60455;DHT22;54989;53.398;6.564;2022-12-18T17:39:22;20.40;43.90
60455;DHT22;54989;53.398;6.564;2022-12-18T17:41:49;20.50;44.10
60455;DHT22;54989;53.398;6.564;2022-12-18T17:44:17;20.50;44.10